Главная страница
METAR-TAF:

METAR-TAF

Аэропорты :

Международный аэропорт имени Анри Коанды

Бухарест, Румыния

широта: 44-33N, долгота: 026-06E, высота над уровнем моря: 95 м

Текущие метеонаблюдения

Эта сводка был подготовлена 35 минут назад, в 13:00 UTC
Ветер 7 Узел от восточно-юго-восточный
Температура 31°C
Влажность 33%
Давление 1013 hPa
Видимость 10 км и более
Нет облачности ниже 1500 м, и нет кучево-дождевой облачности

METAR: LROP 141300Z 11007KT CAVOK 31/13 Q1013 NOSIG

Время: 16:35 (13:35 UTC)

Прогноз

Эта сводка был подготовлена 2 часа и 35 минут назад, в 11:00 UTC
Прогноз действительный с 14-го 12 UTC до 15-го 12 UTC
Ветер 8 Узел от восточный
Видимость 10 км и более
Нет облачности ниже 1500 м, и нет кучево-дождевой облачности

TAF: LROP 141100Z 1412/1512 10008KT CAVOK

Метеонаблюдения и прогнозы для более 4000 аэропортов (сводки METAR и TAF).

Имеющиеся станции представлены на карте желтыми и красными точками.

Чтобы увидеть название станции, наведите на нее мышь.

Затем щелкните, чтобы увидеть метеонаблюдения и метеопрогнозы.

Управление картой: чтобы увеличить масштаб, щелкните зеленые кнопки с черным крестиком; чтобы уменьшить масштаб, щелкните зеленую кнопку с тире; для просмотра соседних карт щелкайте зеленые стрелки.


METAR-TAF: